createdAt,value
2018-07-02T00:01:04.984Z,14.26
2018-07-02T00:02:05.161Z,14.29
2018-07-02T00:03:05.339Z,14.29
2018-07-02T00:04:05.518Z,14.35
2018-07-02T00:05:05.698Z,14.30
2018-07-02T00:06:05.887Z,14.28
2018-07-02T00:07:06.054Z,14.23
2018-07-02T00:08:06.239Z,14.33
2018-07-02T00:09:06.421Z,14.26
2018-07-02T00:10:06.602Z,14.05
2018-07-02T00:11:06.787Z,14.04
2018-07-02T00:12:06.967Z,14.07
2018-07-02T00:13:07.156Z,14.07
2018-07-02T00:14:07.331Z,13.90
2018-07-02T00:15:07.510Z,13.81
2018-07-02T00:16:07.700Z,13.92
2018-07-02T00:17:07.878Z,13.90
2018-07-02T00:18:08.062Z,13.71
2018-07-02T00:19:08.240Z,13.83
2018-07-02T00:21:08.607Z,13.68
2018-07-02T00:22:08.786Z,13.57
2018-07-02T00:23:08.979Z,13.53
2018-07-02T00:24:09.139Z,13.44
2018-07-02T00:25:09.317Z,13.47
2018-07-02T00:26:09.500Z,13.53
2018-07-02T00:27:09.674Z,13.53
2018-07-02T00:28:09.851Z,13.47
2018-07-02T00:29:10.043Z,13.44
2018-07-02T00:30:10.222Z,13.44
2018-07-02T00:31:10.704Z,13.46
2018-07-02T00:32:10.576Z,13.53
2018-07-02T00:33:10.765Z,13.49
2018-07-02T00:35:11.114Z,13.31
2018-07-02T00:36:11.299Z,13.22
2018-07-02T00:37:11.483Z,13.22
2018-07-02T00:38:11.654Z,13.25
2018-07-02T00:39:11.833Z,13.23
2018-07-02T00:40:12.016Z,13.16
2018-07-02T00:41:12.197Z,13.11
2018-07-02T00:42:12.373Z,13.12
2018-07-02T00:43:12.563Z,13.19
2018-07-02T00:44:12.738Z,13.22
2018-07-02T00:45:12.920Z,13.11
2018-07-02T00:46:13.104Z,13.16
2018-07-02T00:47:13.284Z,13.13
2018-07-02T00:48:13.467Z,13.18
2018-07-02T00:49:13.644Z,13.13
2018-07-02T00:50:13.824Z,13.04
2018-07-02T00:51:14.003Z,13.18
2018-07-02T00:52:14.181Z,13.04
2018-07-02T00:53:14.366Z,13.03
2018-07-02T00:54:14.549Z,13.15
2018-07-02T00:55:14.726Z,13.20
2018-07-02T00:56:14.909Z,13.19
2018-07-02T00:57:15.084Z,13.25
2018-07-02T00:58:15.265Z,13.16
2018-07-02T00:59:15.443Z,13.20
2018-07-02T01:00:15.623Z,13.19
2018-07-02T01:01:15.800Z,13.09
2018-07-02T01:02:15.976Z,13.01
2018-07-02T01:03:16.165Z,13.15
2018-07-02T01:04:16.337Z,13.08
2018-07-02T01:05:16.517Z,13.20
2018-07-02T01:06:16.709Z,13.20
2018-07-02T01:07:17.420Z,13.18
2018-07-02T01:08:17.115Z,13.16
2018-07-02T01:09:17.278Z,13.01
2018-07-02T01:10:17.460Z,12.97
2018-07-02T01:11:17.641Z,12.83
2018-07-02T01:12:17.818Z,12.86
2018-07-02T01:13:17.996Z,12.83
2018-07-02T01:14:18.174Z,12.60
2018-07-02T01:15:18.377Z,12.65
2018-07-02T01:16:18.536Z,12.60
2018-07-02T01:17:18.719Z,12.53
2018-07-02T01:18:18.897Z,12.37
2018-07-02T01:19:19.084Z,12.27
2018-07-02T01:20:19.259Z,12.35
2018-07-02T01:21:19.450Z,12.40
2018-07-02T01:22:19.624Z,12.46
2018-07-02T01:23:19.797Z,12.61
2018-07-02T01:24:19.989Z,12.64
2018-07-02T01:25:20.162Z,12.61
2018-07-02T01:26:20.338Z,12.67
2018-07-02T01:27:20.517Z,12.61
2018-07-02T01:28:20.701Z,12.62
2018-07-02T01:29:20.888Z,12.60
2018-07-02T01:30:21.053Z,12.62
2018-07-02T01:31:21.235Z,12.47
2018-07-02T01:32:21.413Z,12.22
2018-07-02T01:33:21.593Z,12.27
2018-07-02T01:34:21.772Z,12.40
2018-07-02T01:35:21.953Z,12.35
2018-07-02T01:36:22.131Z,12.39
2018-07-02T01:37:22.315Z,12.43
2018-07-02T01:38:22.490Z,12.45
2018-07-02T01:39:22.684Z,12.39
2018-07-02T01:40:22.859Z,12.28
2018-07-02T01:41:23.042Z,12.35
2018-07-02T01:42:23.212Z,12.37
2018-07-02T01:43:23.381Z,12.17
2018-07-02T01:44:23.567Z,12.13
2018-07-02T01:45:23.751Z,12.15
2018-07-02T01:46:23.925Z,12.09
2018-07-02T01:47:24.108Z,12.02
2018-07-02T01:48:24.284Z,12.06
2018-07-02T01:49:24.465Z,12.03
2018-07-02T01:50:24.655Z,11.90
2018-07-02T01:51:24.834Z,11.95
2018-07-02T01:52:25.019Z,11.90
2018-07-02T01:53:25.192Z,11.73
2018-07-02T01:54:25.369Z,11.86
2018-07-02T01:55:25.544Z,11.81
2018-07-02T01:56:25.726Z,11.90
2018-07-02T01:57:25.902Z,11.87
2018-07-02T01:58:26.081Z,11.91
2018-07-02T01:59:26.273Z,11.86
2018-07-02T02:00:26.449Z,11.87
2018-07-02T02:01:26.629Z,11.80
2018-07-02T02:02:26.806Z,11.75
2018-07-02T02:03:26.985Z,11.70
2018-07-02T02:04:27.163Z,11.52
2018-07-02T02:05:27.349Z,11.47
2018-07-02T02:06:27.522Z,11.51
2018-07-02T02:07:27.701Z,11.50
2018-07-02T02:08:27.873Z,11.36
2018-07-02T02:09:28.052Z,11.41
2018-07-02T02:10:28.240Z,11.35
2018-07-02T02:11:28.425Z,11.48
2018-07-02T02:12:28.603Z,11.47
2018-07-02T02:13:28.773Z,11.45
2018-07-02T02:14:28.957Z,11.55
2018-07-02T02:15:29.135Z,11.50
2018-07-02T02:16:29.321Z,11.44
2018-07-02T02:17:29.494Z,11.43
2018-07-02T02:18:29.674Z,11.52
2018-07-02T02:19:29.852Z,11.51
2018-07-02T02:20:30.036Z,11.41
2018-07-02T02:21:30.216Z,11.45
2018-07-02T02:22:30.399Z,11.55
2018-07-02T02:23:30.577Z,11.60
2018-07-02T02:24:30.759Z,11.47
2018-07-02T02:25:30.932Z,11.41
2018-07-02T02:26:31.113Z,11.45
2018-07-02T02:27:31.296Z,11.43
2018-07-02T02:28:31.466Z,11.45
2018-07-02T02:29:31.644Z,11.41
2018-07-02T02:30:31.821Z,11.43
2018-07-02T02:31:32.004Z,11.43
2018-07-02T02:32:32.179Z,11.43
2018-07-02T02:33:32.355Z,11.41
2018-07-02T02:34:32.532Z,11.60
2018-07-02T02:35:32.719Z,11.55
2018-07-02T02:36:33.131Z,11.54
2018-07-02T02:37:33.066Z,11.45
2018-07-02T02:38:33.252Z,11.43
2018-07-02T02:39:33.425Z,11.32
2018-07-02T02:40:33.608Z,11.30
2018-07-02T02:41:33.787Z,11.27
2018-07-02T02:42:33.963Z,11.29
2018-07-02T02:43:34.144Z,11.23
2018-07-02T02:44:34.331Z,11.26
2018-07-02T02:45:34.506Z,11.22
2018-07-02T02:46:34.704Z,11.27
2018-07-02T02:47:34.857Z,11.36
2018-07-02T02:48:35.039Z,11.29
2018-07-02T02:49:35.221Z,11.27
2018-07-02T02:50:35.401Z,11.33
2018-07-02T02:51:35.579Z,11.35
2018-07-02T02:52:35.760Z,11.19
2018-07-02T02:53:35.932Z,11.26
2018-07-02T02:54:36.120Z,11.40
2018-07-02T02:55:36.294Z,11.32
2018-07-02T02:56:36.472Z,11.33
2018-07-02T02:57:36.644Z,11.32
2018-07-02T02:58:36.824Z,11.37
2018-07-02T02:59:37.002Z,11.35
2018-07-02T03:00:37.180Z,11.37
2018-07-02T03:01:37.358Z,11.33
2018-07-02T03:02:37.529Z,11.40
2018-07-02T03:03:37.715Z,11.22
2018-07-02T03:04:37.896Z,11.23
2018-07-02T03:05:38.070Z,11.17
2018-07-02T03:06:38.251Z,11.17
2018-07-02T03:07:38.420Z,11.17
2018-07-02T03:08:38.600Z,11.17
2018-07-02T03:09:38.837Z,11.22
2018-07-02T03:10:38.961Z,11.12
2018-07-02T03:11:39.138Z,11.08
2018-07-02T03:12:39.322Z,11.08
2018-07-02T03:13:39.508Z,11.05
2018-07-02T03:14:39.681Z,10.96
2018-07-02T03:15:39.868Z,10.96
2018-07-02T03:16:40.051Z,10.87
2018-07-02T03:17:40.223Z,10.89
2018-07-02T03:18:40.403Z,10.74
2018-07-02T03:19:40.581Z,10.76
2018-07-02T03:20:40.767Z,10.86
2018-07-02T03:21:40.940Z,10.87
2018-07-02T03:22:41.115Z,10.89
2018-07-02T03:23:41.298Z,10.92
2018-07-02T03:24:41.481Z,10.82
2018-07-02T03:25:41.663Z,10.87
2018-07-02T03:26:41.844Z,10.89
2018-07-02T03:27:42.022Z,10.86
2018-07-02T03:28:42.208Z,10.76
2018-07-02T03:29:42.380Z,10.79
2018-07-02T03:31:42.735Z,10.69
2018-07-02T03:32:42.913Z,10.82
2018-07-02T03:33:43.089Z,10.72
2018-07-02T03:34:43.270Z,10.71
2018-07-02T03:35:43.459Z,10.79
2018-07-02T03:36:43.629Z,10.84
2018-07-02T03:37:43.809Z,10.82
2018-07-02T03:38:43.988Z,10.79
2018-07-02T03:39:44.165Z,10.68
2018-07-02T03:40:44.900Z,10.86
2018-07-02T03:41:44.516Z,10.76
2018-07-02T03:42:44.700Z,10.89
2018-07-02T03:43:44.869Z,10.94
2018-07-02T03:44:45.049Z,11.02
2018-07-02T03:45:45.238Z,10.92
2018-07-02T03:46:45.416Z,11.00
2018-07-02T03:47:45.593Z,10.94
2018-07-02T03:48:45.777Z,11.04
2018-07-02T03:49:45.961Z,11.04
2018-07-02T03:50:46.141Z,11.04
2018-07-02T03:51:46.314Z,11.08
2018-07-02T03:52:46.494Z,11.08
2018-07-02T03:53:46.671Z,11.00
2018-07-02T03:54:46.851Z,11.08
2018-07-02T03:55:47.031Z,11.02
2018-07-02T03:56:47.209Z,11.02
2018-07-02T03:57:47.387Z,10.84
2018-07-02T03:58:47.562Z,10.82
2018-07-02T03:59:47.735Z,10.84
2018-07-02T04:00:47.919Z,10.87
2018-07-02T04:01:48.099Z,10.92
2018-07-02T04:02:48.278Z,10.90
2018-07-02T04:03:48.451Z,10.86
2018-07-02T04:04:48.635Z,10.82
2018-07-02T04:05:48.814Z,10.89
2018-07-02T04:06:48.993Z,10.90
2018-07-02T04:07:49.165Z,10.81
2018-07-02T04:08:49.321Z,10.94
2018-07-02T04:09:49.499Z,10.97
2018-07-02T04:10:49.687Z,11.12
2018-07-02T04:11:49.867Z,11.08
2018-07-02T04:12:50.047Z,11.22
2018-07-02T04:13:50.227Z,11.11
2018-07-02T04:14:50.406Z,11.07
2018-07-02T04:15:50.586Z,11.14
2018-07-02T04:16:50.772Z,11.27
2018-07-02T04:17:51.210Z,11.55
2018-07-02T04:18:51.129Z,12.25
2018-07-02T04:19:51.308Z,13.04
2018-07-02T04:20:51.495Z,13.39
2018-07-02T04:21:51.666Z,13.74
2018-07-02T04:22:51.844Z,14.37
2018-07-02T04:23:52.023Z,15.40
2018-07-02T04:24:52.206Z,16.04
2018-07-02T04:25:52.403Z,16.64
2018-07-02T04:26:52.560Z,17.39
2018-07-02T04:27:52.750Z,17.85
2018-07-02T04:28:53.017Z,18.38
2018-07-02T04:29:53.157Z,18.89
2018-07-02T04:30:53.334Z,19.19
2018-07-02T04:31:53.517Z,19.45
2018-07-02T04:32:53.688Z,20.16
2018-07-02T04:33:53.871Z,20.21
2018-07-02T04:34:54.083Z,20.41
2018-07-02T04:35:54.269Z,20.09
2018-07-02T04:36:54.513Z,20.34
2018-07-02T04:37:54.649Z,20.40
2018-07-02T04:38:55.089Z,20.10
2018-07-02T04:39:55.024Z,20.13
2018-07-02T04:40:55.212Z,20.21
2018-07-02T04:41:55.402Z,20.65
2018-07-02T04:42:55.604Z,20.72
2018-07-02T04:43:55.783Z,20.75
2018-07-02T04:44:55.969Z,20.92
2018-07-02T04:45:56.166Z,20.93
2018-07-02T04:46:56.346Z,20.55
2018-07-02T04:47:56.540Z,20.81
2018-07-02T04:48:56.733Z,21.07
2018-07-02T04:49:56.927Z,21.67
2018-07-02T04:50:57.107Z,22.22
2018-07-02T04:51:57.283Z,22.43
2018-07-02T04:52:57.481Z,22.65
2018-07-02T04:53:57.657Z,22.41
2018-07-02T04:54:57.848Z,22.30
2018-07-02T04:55:58.042Z,22.53
2018-07-02T04:56:58.234Z,22.78
2018-07-02T04:57:58.441Z,22.70
2018-07-02T04:58:58.622Z,23.20
2018-07-02T04:59:59.056Z,23.12
2018-07-02T05:00:59.003Z,23.44
2018-07-02T05:01:59.195Z,23.55
2018-07-02T05:02:59.385Z,23.24
2018-07-02T05:03:59.578Z,23.47
2018-07-02T05:04:59.770Z,23.44
2018-07-02T05:05:59.964Z,23.43
2018-07-02T05:07:00.154Z,22.94
2018-07-02T05:08:00.350Z,23.18
2018-07-02T05:09:00.542Z,23.28
2018-07-02T05:10:00.742Z,23.39
2018-07-02T05:11:00.930Z,23.21
2018-07-02T05:12:01.129Z,22.81
2018-07-02T05:13:01.338Z,22.73
2018-07-02T05:14:01.520Z,22.99
2018-07-02T05:15:01.724Z,23.13
2018-07-02T05:16:01.914Z,23.06
2018-07-02T05:17:02.162Z,23.18
2018-07-02T05:18:02.304Z,23.21
2018-07-02T05:19:02.509Z,23.31
2018-07-02T05:20:02.687Z,23.74
2018-07-02T05:23:35.190Z,23.28
2018-07-02T05:24:35.383Z,23.98
2018-07-02T05:25:35.582Z,24.02
2018-07-02T05:26:35.807Z,23.76
2018-07-02T05:27:35.939Z,24.01
2018-07-02T05:28:36.138Z,24.13
2018-07-02T05:29:36.322Z,24.54
2018-07-02T05:30:36.550Z,24.21
2018-07-02T05:31:36.710Z,24.42
2018-07-02T05:32:36.905Z,24.63
2018-07-02T05:33:37.086Z,24.53
2018-07-02T05:34:37.271Z,24.43
2018-07-02T05:35:37.472Z,23.98
2018-07-02T05:36:37.665Z,24.36
2018-07-02T05:37:37.833Z,24.32
2018-07-02T05:38:38.028Z,24.43
2018-07-02T05:39:38.216Z,24.40
2018-07-02T05:40:38.411Z,23.74
2018-07-02T05:41:38.861Z,23.76
2018-07-02T05:42:38.795Z,24.47
2018-07-02T05:43:39.065Z,24.68
2018-07-02T05:44:39.236Z,24.40
2018-07-02T05:45:39.414Z,24.36
2018-07-02T05:46:39.608Z,24.21
2018-07-02T05:47:39.821Z,24.42
2018-07-02T05:48:40.071Z,24.70
2018-07-02T05:49:40.170Z,24.51
2018-07-02T05:50:40.367Z,24.54
2018-07-02T05:51:40.550Z,25.04
2018-07-02T05:52:40.801Z,25.17
2018-07-02T05:53:40.935Z,24.99
2018-07-02T05:54:41.172Z,24.86
2018-07-02T05:55:41.338Z,25.16
2018-07-02T05:56:41.506Z,24.99
2018-07-02T05:57:41.691Z,24.16
2018-07-02T05:58:41.886Z,24.54
2018-07-02T05:59:42.083Z,24.57
2018-07-02T06:00:42.308Z,23.25
2018-07-02T06:01:42.485Z,23.65
2018-07-02T06:02:42.678Z,24.01
2018-07-02T06:03:42.859Z,23.76
2018-07-02T06:04:43.058Z,23.78
2018-07-02T06:05:43.256Z,23.81
2018-07-02T06:06:43.455Z,24.32
2018-07-02T06:07:43.663Z,24.47
2018-07-02T06:08:44.762Z,24.81
2018-07-02T06:09:44.077Z,25.38
2018-07-02T06:10:44.280Z,25.36
2018-07-02T06:11:44.472Z,26.09
2018-07-02T06:12:44.663Z,26.29
2018-07-02T06:13:44.847Z,26.16
2018-07-02T06:14:45.056Z,26.22
2018-07-02T06:15:45.230Z,25.75
2018-07-02T06:16:45.424Z,26.09
2018-07-02T06:17:45.615Z,26.63
2018-07-02T06:18:45.813Z,25.53
2018-07-02T06:19:46.009Z,25.11
2018-07-02T06:20:46.199Z,25.17
2018-07-02T06:21:46.390Z,24.96
2018-07-02T06:22:46.589Z,24.33
2018-07-02T06:23:46.778Z,25.04
2018-07-02T06:24:46.984Z,25.07
2018-07-02T06:25:47.169Z,25.03
2018-07-02T06:26:47.362Z,25.29
2018-07-02T06:27:47.564Z,25.31
2018-07-02T06:28:47.752Z,25.53
2018-07-02T06:29:47.947Z,25.75
2018-07-02T06:30:48.141Z,25.81
2018-07-02T06:31:48.375Z,26.21
2018-07-02T06:32:48.521Z,26.16
2018-07-02T06:33:48.696Z,25.84
2018-07-02T06:34:48.895Z,26.37
2018-07-02T06:35:49.092Z,26.07
2018-07-02T06:36:49.296Z,26.18
2018-07-02T06:37:49.483Z,26.36
2018-07-02T06:38:49.668Z,26.52
2018-07-02T06:39:49.857Z,26.74
2018-07-02T06:40:50.056Z,26.62
2018-07-02T06:41:50.252Z,26.93
2018-07-02T06:42:50.442Z,27.00
2018-07-02T06:43:50.642Z,26.99
2018-07-02T06:44:50.831Z,26.68
2018-07-02T06:45:51.029Z,26.52
2018-07-02T06:46:51.218Z,26.93
2018-07-02T06:47:51.422Z,26.75
2018-07-02T06:48:51.618Z,26.84
2018-07-02T06:49:51.806Z,27.45
2018-07-02T06:50:52.002Z,27.77
2018-07-02T06:51:52.204Z,27.96
2018-07-02T06:52:53.279Z,27.96
2018-07-02T06:53:52.590Z,27.78
2018-07-02T06:54:52.785Z,27.60
2018-07-02T06:55:52.982Z,27.93
2018-07-02T06:56:53.177Z,28.00
2018-07-02T06:57:53.381Z,27.49
2018-07-02T06:58:53.565Z,28.01
2018-07-02T06:59:53.760Z,27.90
2018-07-02T07:00:53.942Z,27.60
2018-07-02T07:01:54.151Z,27.75
2018-07-02T07:02:54.340Z,27.90
2018-07-02T07:03:54.530Z,28.26
2018-07-02T07:04:54.741Z,27.37
2018-07-02T07:05:54.930Z,27.07
2018-07-02T07:06:55.111Z,26.84
2018-07-02T07:07:55.306Z,26.96
2018-07-02T07:08:55.533Z,26.95
2018-07-02T07:09:55.729Z,27.47
2018-07-02T07:10:55.922Z,27.47
2018-07-02T07:11:56.115Z,26.56
2018-07-02T07:12:56.308Z,26.59
2018-07-02T07:13:56.509Z,26.75
2018-07-02T07:14:56.701Z,27.36
2018-07-02T07:15:56.888Z,27.30
2018-07-02T07:16:57.082Z,26.74
2018-07-02T07:17:57.284Z,26.83
2018-07-02T07:18:57.471Z,26.48
2018-07-02T07:19:57.663Z,26.48
2018-07-02T07:20:57.860Z,26.58
2018-07-02T07:21:58.055Z,26.85
2018-07-02T07:22:58.254Z,27.40
2018-07-02T07:23:58.441Z,27.32
2018-07-02T07:24:58.635Z,27.49
2018-07-02T07:25:58.829Z,27.95
2018-07-02T07:26:59.023Z,27.67
2018-07-02T07:27:59.220Z,27.65
2018-07-02T07:28:59.441Z,27.42
2018-07-02T07:29:59.597Z,28.10
2018-07-02T07:30:59.821Z,28.30
2018-07-02T07:32:00.006Z,27.77
2018-07-02T07:33:00.202Z,27.33
2018-07-02T07:34:00.395Z,27.63
2018-07-02T07:35:00.604Z,27.58
2018-07-02T07:36:00.791Z,25.98
2018-07-02T07:37:00.992Z,24.70
2018-07-02T07:38:01.190Z,24.54
2018-07-02T07:39:01.380Z,24.35
2018-07-02T07:40:01.572Z,24.51
2018-07-02T07:41:01.769Z,24.57
2018-07-02T07:42:01.951Z,25.58
2018-07-02T07:43:02.144Z,25.70
2018-07-02T07:44:02.322Z,25.25
2018-07-02T07:45:02.537Z,26.10
2018-07-02T07:46:02.722Z,26.41
2018-07-02T07:47:02.924Z,26.55
2018-07-02T07:48:03.110Z,27.08
2018-07-02T07:49:03.307Z,27.37
2018-07-02T07:50:03.527Z,26.83
2018-07-02T07:51:03.699Z,27.29
2018-07-02T07:52:03.890Z,27.45
2018-07-02T07:53:04.080Z,27.00
2018-07-02T07:54:04.281Z,27.71
2018-07-02T07:55:04.488Z,27.18
2018-07-02T07:56:04.660Z,27.25
2018-07-02T07:57:04.854Z,26.95
2018-07-02T07:58:05.047Z,27.26
2018-07-02T07:59:05.241Z,27.40
2018-07-02T08:00:05.429Z,27.68
2018-07-02T08:01:05.628Z,26.51
2018-07-02T08:02:05.814Z,26.26
2018-07-02T08:03:06.019Z,25.41
2018-07-02T08:04:06.204Z,26.38
2018-07-02T08:05:06.418Z,26.10
2018-07-02T08:06:06.594Z,26.10
2018-07-02T08:07:06.787Z,25.16
2018-07-02T08:08:06.979Z,24.01
2018-07-02T08:09:07.156Z,24.68
2018-07-02T08:10:07.352Z,24.88
2018-07-02T08:11:07.531Z,25.43
2018-07-02T08:12:07.721Z,25.41
2018-07-02T08:13:07.908Z,24.69
2018-07-02T08:14:08.109Z,24.55
2018-07-02T08:15:08.314Z,24.03
2018-07-02T08:16:08.466Z,24.77
2018-07-02T08:17:08.665Z,25.01
2018-07-02T08:18:08.850Z,25.36
2018-07-02T08:19:09.087Z,25.87
2018-07-02T08:20:09.226Z,25.78
2018-07-02T08:21:09.431Z,26.41
2018-07-02T08:22:09.592Z,25.66
2018-07-02T08:23:09.780Z,25.43
2018-07-02T08:24:10.827Z,25.11
2018-07-02T08:25:10.129Z,25.26
2018-07-02T08:26:10.345Z,25.04
2018-07-02T08:27:10.505Z,24.88
2018-07-02T08:28:10.697Z,25.03
2018-07-02T08:30:11.078Z,25.04
2018-07-02T08:31:11.260Z,24.76
2018-07-02T08:32:11.455Z,25.53
2018-07-02T08:33:11.647Z,25.99
2018-07-02T08:34:11.835Z,24.96
2018-07-02T08:35:12.030Z,23.98
2018-07-02T08:36:12.217Z,24.24
2018-07-02T08:37:12.443Z,24.47
2018-07-02T08:38:12.611Z,24.80
2018-07-02T08:39:12.802Z,25.55
2018-07-02T08:40:12.994Z,26.33
2018-07-02T08:41:13.189Z,27.02
2018-07-02T08:42:13.377Z,26.93
2018-07-02T08:43:13.570Z,24.57
2018-07-02T08:44:13.789Z,23.44
2018-07-02T08:45:13.958Z,23.54
2018-07-02T08:46:14.145Z,23.63
2018-07-02T08:47:14.345Z,23.95
2018-07-02T08:48:14.541Z,24.30
2018-07-02T08:49:14.736Z,24.18
2018-07-02T08:50:15.839Z,24.61
2018-07-02T08:51:15.167Z,23.86
2018-07-02T08:52:15.369Z,24.20
2018-07-02T08:53:15.565Z,24.42
2018-07-02T08:54:15.742Z,24.18
2018-07-02T08:55:15.925Z,24.55
2018-07-02T08:56:16.118Z,23.73
2018-07-02T08:57:16.318Z,24.40
2018-07-02T08:58:16.542Z,24.32
2018-07-02T08:59:16.701Z,23.93
2018-07-02T09:00:16.947Z,24.21
2018-07-02T09:01:17.418Z,23.43
2018-07-02T09:02:17.327Z,23.32
2018-07-02T09:03:17.540Z,23.51
2018-07-02T09:04:17.693Z,23.81
2018-07-02T09:05:17.889Z,24.55
2018-07-02T09:06:18.070Z,24.08
2018-07-02T09:07:18.261Z,24.14
2018-07-02T09:08:18.475Z,23.95
2018-07-02T09:09:18.677Z,24.55
2018-07-02T09:10:18.863Z,24.81
2018-07-02T09:11:19.071Z,24.29
2018-07-02T09:12:19.234Z,23.56
2018-07-02T09:13:19.426Z,24.55
2018-07-02T09:14:19.612Z,24.51
2018-07-02T09:15:19.803Z,24.98
2018-07-02T09:16:19.996Z,24.61
2018-07-02T09:17:20.178Z,24.57
2018-07-02T09:18:20.353Z,24.06
2018-07-02T09:19:20.551Z,23.66
2018-07-02T09:20:20.742Z,23.46
2018-07-02T09:21:20.940Z,23.48
2018-07-02T09:22:21.133Z,23.87
2018-07-02T09:23:21.312Z,23.86
2018-07-02T09:24:21.507Z,24.13
2018-07-02T09:25:21.704Z,23.87
2018-07-02T09:26:21.932Z,24.28
2018-07-02T09:27:22.178Z,24.57
2018-07-02T09:28:22.877Z,25.07
2018-07-02T09:29:22.527Z,24.55
2018-07-02T09:30:22.900Z,24.05
2018-07-02T09:31:22.920Z,23.93
2018-07-02T09:32:23.196Z,23.68
2018-07-02T09:33:23.312Z,23.80
2018-07-02T09:34:23.486Z,23.88
2018-07-02T09:35:23.683Z,23.91
2018-07-02T09:36:23.864Z,23.99
2018-07-02T09:37:24.045Z,24.16
2018-07-02T09:38:24.230Z,23.88
2018-07-02T09:39:24.488Z,24.30
2018-07-02T09:40:24.621Z,23.73
2018-07-02T09:41:24.797Z,24.17
2018-07-02T09:42:24.979Z,24.47
2018-07-02T09:43:25.169Z,24.20
2018-07-02T09:44:25.356Z,23.76
2018-07-02T09:45:25.556Z,23.58
2018-07-02T09:46:25.752Z,23.81
2018-07-02T09:47:25.961Z,23.95
2018-07-02T09:48:26.134Z,23.95
2018-07-02T09:49:26.370Z,23.83
2018-07-02T09:50:26.511Z,24.18
2018-07-02T09:51:26.699Z,24.20
2018-07-02T09:52:26.894Z,24.48
2018-07-02T09:53:27.339Z,24.66
2018-07-02T09:54:27.265Z,24.69
2018-07-02T09:55:27.451Z,25.03
2018-07-02T09:56:27.634Z,25.31
2018-07-02T09:57:27.841Z,24.61
2018-07-02T09:58:28.028Z,24.39
2018-07-02T09:59:28.239Z,23.65
2018-07-02T10:00:28.408Z,23.92
2018-07-02T10:01:28.603Z,24.03
2018-07-02T10:02:28.785Z,24.35
2018-07-02T10:03:28.972Z,24.53
2018-07-02T10:04:29.161Z,24.43
2018-07-02T10:05:29.360Z,24.18
2018-07-02T10:06:29.602Z,24.06
2018-07-02T10:07:29.738Z,24.06
2018-07-02T10:08:29.926Z,24.32
2018-07-02T10:09:30.130Z,24.17
2018-07-02T10:10:30.299Z,23.91
2018-07-02T10:11:30.482Z,23.74
2018-07-02T10:12:30.683Z,23.87
2018-07-02T10:13:30.888Z,23.69
2018-07-02T10:14:31.062Z,23.87
2018-07-02T10:16:31.444Z,23.93
2018-07-02T10:17:31.646Z,23.51
2018-07-02T10:18:31.795Z,23.69
2018-07-02T10:19:31.973Z,24.20
2018-07-02T10:20:32.162Z,24.58
2018-07-02T10:21:32.356Z,25.04
2018-07-02T10:22:32.549Z,25.01
2018-07-02T10:23:37.333Z,25.36
2018-07-02T10:24:32.937Z,25.14
2018-07-02T10:25:33.100Z,25.17
2018-07-02T10:26:33.294Z,25.21
2018-07-02T10:27:33.561Z,25.59
2018-07-02T10:28:33.703Z,25.77
2018-07-02T10:29:33.891Z,26.00
2018-07-02T10:30:34.076Z,25.16
2018-07-02T10:31:34.257Z,25.18
2018-07-02T10:32:34.440Z,25.25
2018-07-02T10:33:34.627Z,24.99
2018-07-02T10:34:34.814Z,25.14
2018-07-02T10:35:35.008Z,24.66
2018-07-02T10:36:35.206Z,24.42
2018-07-02T10:37:35.384Z,23.84
2018-07-02T10:38:35.569Z,23.66
2018-07-02T10:39:35.767Z,23.69
2018-07-02T10:40:35.940Z,23.62
2018-07-02T10:41:36.131Z,23.65
2018-07-02T10:42:36.333Z,24.01
2018-07-02T10:43:36.512Z,24.32
2018-07-02T10:44:36.708Z,24.05
2018-07-02T10:45:36.909Z,23.78
2018-07-02T10:46:37.090Z,23.86
2018-07-02T10:47:37.280Z,24.01
2018-07-02T10:48:37.463Z,24.14
2018-07-02T10:49:37.657Z,24.18
2018-07-02T10:50:37.839Z,24.02
2018-07-02T10:51:38.030Z,23.73
2018-07-02T10:52:38.219Z,23.68
2018-07-02T10:53:38.414Z,23.91
2018-07-02T10:54:38.605Z,24.11
2018-07-02T10:55:38.815Z,24.08
2018-07-02T10:56:38.969Z,24.47
2018-07-02T10:57:39.408Z,24.93
2018-07-02T10:58:39.346Z,25.06
2018-07-02T10:59:39.534Z,25.23
2018-07-02T11:00:39.724Z,25.03
2018-07-02T11:01:39.924Z,25.11
2018-07-02T11:02:40.104Z,25.32
2018-07-02T11:03:40.309Z,25.40
2018-07-02T11:04:40.724Z,24.86
2018-07-02T11:05:40.668Z,24.68
2018-07-02T11:06:40.852Z,24.39
2018-07-02T11:07:41.051Z,24.13
2018-07-02T11:08:41.224Z,24.55
2018-07-02T11:09:41.424Z,25.01
2018-07-02T11:10:41.604Z,25.26
2018-07-02T11:11:41.810Z,25.32
2018-07-02T11:12:41.995Z,25.01
2018-07-02T11:13:42.235Z,24.85
2018-07-02T11:14:42.358Z,25.08
2018-07-02T11:15:42.542Z,24.78
2018-07-02T11:16:42.736Z,23.91
2018-07-02T11:17:42.925Z,23.74
2018-07-02T11:18:43.355Z,23.47
2018-07-02T11:19:43.306Z,23.59
2018-07-02T11:20:43.491Z,23.99
2018-07-02T11:21:43.679Z,23.96
2018-07-02T11:22:43.856Z,24.16
2018-07-02T11:23:44.121Z,24.51
2018-07-02T11:24:44.219Z,24.70
2018-07-02T11:25:44.406Z,24.89
2018-07-02T11:26:44.595Z,25.06
2018-07-02T11:27:44.775Z,25.03
2018-07-02T11:28:44.961Z,24.17
2018-07-02T11:29:45.129Z,23.98
2018-07-02T11:30:45.351Z,24.24
2018-07-02T11:31:45.519Z,24.65
2018-07-02T11:32:45.697Z,25.31
2018-07-02T11:33:45.876Z,25.63
2018-07-02T11:34:46.065Z,25.77
2018-07-02T11:35:46.246Z,26.05
2018-07-02T11:36:46.437Z,26.37
2018-07-02T11:37:46.627Z,26.19
2018-07-02T11:38:46.801Z,26.19
2018-07-02T11:39:46.994Z,25.78
2018-07-02T11:40:47.185Z,25.72
2018-07-02T11:41:47.374Z,25.40
2018-07-02T11:42:47.564Z,24.98
2018-07-02T11:43:47.745Z,25.04
2018-07-02T11:44:47.935Z,25.01
2018-07-02T11:45:48.115Z,24.51
2018-07-02T11:46:48.303Z,24.68
2018-07-02T11:47:48.514Z,24.74
2018-07-02T11:48:48.674Z,24.40
2018-07-02T11:49:48.896Z,24.53
2018-07-02T11:50:49.072Z,24.57
2018-07-02T11:51:49.244Z,24.57
2018-07-02T11:52:49.430Z,24.53
2018-07-02T11:53:49.628Z,24.76
2018-07-02T11:54:49.816Z,24.69
2018-07-02T11:55:50.004Z,24.58
2018-07-02T11:56:50.199Z,24.48
2018-07-02T11:57:50.374Z,24.54
2018-07-02T11:58:50.565Z,24.60
2018-07-02T11:59:50.762Z,24.51
2018-07-02T12:00:50.946Z,24.20
2018-07-02T12:01:51.136Z,24.11
2018-07-02T12:02:51.289Z,24.10
2018-07-02T12:03:51.488Z,24.47
2018-07-02T12:04:51.664Z,24.53
2018-07-02T12:05:51.860Z,24.73
2018-07-02T12:06:52.049Z,25.06
2018-07-02T12:07:52.239Z,25.18
2018-07-02T12:08:52.440Z,25.21
2018-07-02T12:09:52.619Z,25.36
2018-07-02T12:10:52.784Z,25.60
2018-07-02T12:11:52.994Z,25.62
2018-07-02T12:12:53.200Z,25.90
2018-07-02T12:13:53.384Z,26.00
2018-07-02T12:14:53.573Z,25.84
2018-07-02T12:15:53.730Z,26.09
2018-07-02T12:16:53.909Z,26.10
2018-07-02T12:17:54.092Z,25.50
2018-07-02T12:18:54.309Z,25.58
2018-07-02T12:19:54.484Z,25.59
2018-07-02T12:20:54.683Z,25.18
2018-07-02T12:21:54.882Z,25.03
2018-07-02T12:22:55.062Z,24.76
2018-07-02T12:23:55.258Z,24.55
2018-07-02T12:24:55.434Z,24.76
2018-07-02T12:25:55.628Z,25.01
2018-07-02T12:26:55.816Z,25.26
2018-07-02T12:27:56.004Z,25.53
2018-07-02T12:28:56.193Z,25.78
2018-07-02T12:29:56.387Z,26.29
2018-07-02T12:30:56.553Z,26.47
2018-07-02T12:31:56.736Z,26.75
2018-07-02T12:32:56.924Z,26.53
2018-07-02T12:33:57.102Z,26.02
2018-07-02T12:34:57.291Z,25.77
2018-07-02T12:35:57.495Z,24.70
2018-07-02T12:36:57.666Z,24.55
2018-07-02T12:37:57.857Z,24.85
2018-07-02T12:38:58.042Z,25.21
2018-07-02T12:39:58.234Z,25.11
2018-07-02T12:40:58.414Z,25.07
2018-07-02T12:41:58.614Z,25.38
2018-07-02T12:42:58.791Z,25.48
2018-07-02T12:43:59.059Z,25.72
2018-07-02T12:44:59.164Z,25.70
2018-07-02T12:45:59.357Z,25.87
2018-07-02T12:46:59.529Z,26.00
2018-07-02T12:47:59.716Z,26.16
2018-07-02T12:48:59.907Z,26.23
2018-07-02T12:50:00.104Z,26.21
2018-07-02T12:51:00.292Z,26.29
2018-07-02T12:52:00.488Z,26.56
2018-07-02T12:53:00.687Z,26.58
2018-07-02T12:54:00.922Z,26.58
2018-07-02T12:55:01.072Z,26.71
2018-07-02T12:56:01.257Z,26.65
2018-07-02T12:57:01.447Z,26.85
2018-07-02T12:58:01.651Z,26.90
2018-07-02T12:59:01.830Z,26.80
2018-07-02T13:00:02.018Z,26.73
2018-07-02T13:01:02.234Z,26.77
2018-07-02T13:02:02.398Z,26.96
2018-07-02T13:03:02.586Z,26.95